• Join FlightAware (Why Join?)
  • Login
  • US Flag 
11:53PM EDT


 

Airport Tracker/Info


-or-


 

Live Flight TrackerFlight Track Log ✈ TAM3445 ✈ 02-Jul-2013 ✈ SBBR / BSB - SBGL / GIG

Flight Track Log - Related Links

Times and Time Zones

All times are in EDT time to prevent confusion due to time zone crossing. See the TAM3445 flight status page for this flight to view local times or setup timezone preferences in your user account.

Time Position Orientation Groundspeed Altitude Reporting Facility
EDT Latitude Longitude Course Direction KTS MPH feet Rate Location/Type
06:55PM -15.8690 -47.9190 216° Southwest 10 12  Level FlightAware
06:58PM -15.8690 -47.9180 90° East 28 32 360 Level FlightAware
06:58PM -15.8690 -47.9140 90° East 30 35 480 Level FlightAware
07:01PM -16.0347 -47.8076 148° Southeast  Level Estimated
07:02PM -16.1143 -47.7565 148° Southeast  Level Estimated
07:02PM -15.8780 -47.9240 148° Southeast 28 32  Level FlightAware
07:02PM -15.8780 -47.9280 270° West 26 30 1,080 Level FlightAware
07:03PM -15.8780 -47.9320 270° West 21 24 1,260 Level FlightAware
07:03PM -15.8790 -47.9340 243° Southwest 13 15 1,620 Level FlightAware
07:04PM -15.8800 -47.9310 109° East 18 21 2,160 Level FlightAware
07:05PM -15.8780 -47.9070 85° East 166 191 3,600 3,300 Climbing FlightAware
07:05PM -15.8770 -47.8880 87° East 147 169 4,900 2,400 Climbing FlightAware
07:06PM -15.8760 -47.8670 87° East 147 169 5,800 1,560 Climbing FlightAware
07:06PM -15.8760 -47.8560 90° East 158 182 6,100 1,200 Climbing FlightAware
07:06PM -15.8810 -47.8490 127° Southeast 173 199 6,300 960 Climbing FlightAware
07:07PM -15.8920 -47.8430 152° Southeast 194 223 6,500 900 Climbing FlightAware
07:07PM -15.9150 -47.8340 159° South 233 268 6,900 1,080 Climbing FlightAware
07:07PM -15.9440 -47.8250 163° South 271 312 7,400 1,320 Climbing FlightAware
07:08PM -15.9550 -47.8200 156° South 278 320 7,700 2,700 Climbing FlightAware
07:08PM -15.9930 -47.8060 160° South 289 333 9,200 3,060 Climbing FlightAware
07:08PM -16.0110 -47.7980 157° South 289 333 10,000 2,160 Climbing FlightAware
07:09PM -16.0640 -47.7780 160° South 323 372 11,200 1,860 Climbing FlightAware
07:10PM -16.1240 -47.7540 159° South 349 402 12,500 2,100 Climbing FlightAware
07:10PM -16.1850 -47.7300 159° South 361 415 14,000 2,100 Climbing FlightAware
07:11PM -16.2560 -47.7010 159° South 375 432 15,500 1,980 Climbing FlightAware
07:11PM -16.2900 -47.6880 160° South 380 437 16,200 2,160 Climbing FlightAware
07:12PM -16.3640 -47.6590 159° South 387 445 17,900 1,920 Climbing FlightAware
07:14PM -16.5020 -47.6040 159° South 406 467 20,300 1,260 Climbing FlightAware
07:14PM -16.5940 -47.5680 159° South 415 478 20,900 360 Climbing FlightAware
07:15PM -16.6550 -47.5430 159° South 415 478 20,900 1,620 Level FlightAware
07:16PM -16.7530 -47.4440 136° Southeast 446 513 23,500 1,680 Climbing FlightAware
07:17PM -16.8000 -47.4000 138° Southeast 446 513 23,500 1,920 Level FlightAware
07:17PM -16.8660 -47.3160 129° Southeast 465 535 26,000 1,860 Climbing FlightAware
07:18PM -16.9360 -47.2400 134° Southeast 471 542 26,400 180 Climbing FlightAware
07:19PM -16.9990 -47.1720 134° Southeast 471 542 26,400  Level FlightAware
07:20PM -17.0460 -47.1210 134° Southeast 471 542 26,400 2,220 Level FlightAware
07:20PM -17.1550 -47.0010 134° Southeast 499 574 29,500 2,640 Climbing FlightAware
07:21PM -17.2170 -46.9330 134° Southeast 504 580 30,200 960 Climbing FlightAware
07:22PM -17.2710 -46.8740 134° Southeast 510 587 30,700 1,200 Climbing FlightAware
07:22PM -17.3490 -46.7890 134° Southeast 507 583 31,900 1,560 Climbing FlightAware
07:23PM -17.4120 -46.7190 133° Southeast 500 575 33,000 1,380 Climbing FlightAware
07:24PM -17.4810 -46.6420 133° Southeast 500 575 33,900 720 Climbing FlightAware
07:24PM -17.5270 -46.5910 133° Southeast 500 575 34,000 60 Climbing FlightAware
07:25PM -17.5910 -46.5180 133° Southeast 500 575 34,000 2,460 Level FlightAware
07:25PM -17.6510 -46.5070 170° South 460 529 36,600 300 Climbing FlightAware
07:28PM -17.8221 -46.4026 150° Southeast  Level Estimated
07:29PM -17.9029 -46.3532 150° Southeast  Level Estimated
07:29PM -18.0390 -46.2730 150° Southeast 37,000  Level FlightAware
07:32PM -18.2476 -46.1449 150° Southeast  Level Estimated
07:33PM -18.3283 -46.0953 150° Southeast  Level Estimated
07:34PM -18.4090 -46.0456 150° Southeast  Level Estimated
07:34PM -18.5730 -45.9490 150° Southeast 462 532 37,000  Level FlightAware
07:34PM -18.6470 -45.9030 150° Southeast 461 531 37,000  Level FlightAware
07:35PM -18.7280 -45.8540 150° Southeast 461 531 37,000  Level FlightAware
07:36PM -18.7890 -45.8170 150° Southeast 462 532 37,000  Level FlightAware
07:36PM -18.8760 -45.7630 150° Southeast 462 532 37,000  Level FlightAware
07:37PM -18.9500 -45.7190 151° Southeast 463 533 37,000  Level FlightAware
07:38PM -19.0250 -45.6730 150° Southeast 464 534 37,000  Level FlightAware
07:38PM -19.1010 -45.6270 150° Southeast 466 536 37,000  Level FlightAware
07:39PM -19.1760 -45.5810 150° Southeast 466 536 37,000  Level FlightAware
07:40PM -19.2600 -45.5290 150° Southeast 467 537 37,000  Level FlightAware
07:40PM -19.3370 -45.4820 150° Southeast 467 537 37,000  Level FlightAware
07:41PM -19.4150 -45.4340 150° Southeast 468 539 37,000  Level FlightAware
07:42PM -19.4800 -45.3930 149° Southeast 468 539 37,000  Level FlightAware
07:42PM -19.5600 -45.3450 151° Southeast 467 537 37,000  Level FlightAware
07:43PM -19.6280 -45.3030 150° Southeast 468 539 37,000  Level FlightAware
07:44PM -19.7230 -45.2430 149° Southeast 470 541 37,000  Level FlightAware
07:45PM -19.7800 -45.2070 149° Southeast 470 541 37,000  Level FlightAware
07:45PM -19.8410 -45.1680 149° Southeast 470 541 37,000  Level FlightAware
07:46PM -19.9140 -45.1220 149° Southeast 470 541 37,000  Level FlightAware
07:47PM -19.9720 -45.0840 148° Southeast 470 541 37,000  Level FlightAware
07:48PM -20.1390 -44.9830 150° Southeast 470 541 37,000  Level FlightAware
07:48PM -20.2220 -44.9320 150° Southeast 473 544 37,000  Level FlightAware
07:49PM -20.3020 -44.8810 149° Southeast 473 544 37,000  Level FlightAware
07:50PM -20.4010 -44.8190 150° Southeast 478 550 37,000  Level FlightAware
07:51PM -20.4850 -44.7660 149° Southeast 478 550 37,000  Level FlightAware
07:51PM -20.5430 -44.7280 148° Southeast 478 550 37,000  Level FlightAware
07:53PM -20.7040 -44.6280 150° Southeast 483 556 37,000  Level FlightAware
07:53PM -20.7780 -44.5810 149° Southeast 483 556 37,000  Level FlightAware
07:54PM -20.8400 -44.5420 150° Southeast 483 556 37,000  Level FlightAware
07:55PM -20.9550 -44.4690 149° Southeast 483 556 37,000  Level FlightAware
07:56PM -21.0490 -44.4100 150° Southeast 485 558 37,000  Level FlightAware
07:56PM -21.1170 -44.3670 149° Southeast 485 558 37,000 -720 Level FlightAware
07:57PM -21.1940 -44.3180 149° Southeast 493 567 36,000 -1,500 Descending FlightAware
07:58PM -21.3040 -44.2470 149° Southeast 488 562 34,900 -2,280 Descending FlightAware
07:58PM -21.3910 -44.1910 149° Southeast 494 568 32,800 -3,060 Descending FlightAware
07:59PM -21.4800 -44.1330 149° Southeast 494 568 30,400 -3,060 Descending FlightAware
08:00PM -21.5590 -44.0820 149° Southeast 486 559 28,500 -2,040 Descending FlightAware
08:01PM -21.6340 -44.0330 149° Southeast 452 520 27,700 -1,380 Descending FlightAware
08:01PM -21.7000 -43.9910 149° Southeast 429 494 26,700 -1,380 Descending FlightAware
08:02PM -21.7440 -43.9620 149° Southeast 418 481 25,800 -1,380 Descending FlightAware
08:03PM -21.7940 -43.9300 149° Southeast 407 468 24,800 -1,980 Descending FlightAware
08:03PM -21.8560 -43.8890 148° Southeast 397 457 23,300 -1,620 Descending FlightAware
08:04PM -21.9100 -43.8540 149° Southeast 371 427 22,700 -1,380 Descending FlightAware
08:05PM -21.9880 -43.8040 149° Southeast 334 384 21,400 -1,860 Descending FlightAware
08:05PM -22.0380 -43.7710 149° Southeast 317 365 20,000 -1,920 Descending FlightAware
08:06PM -22.0860 -43.7400 149° Southeast 304 350 18,700 -2,160 Descending FlightAware
08:07PM -22.1300 -43.7100 148° Southeast 303 349 17,200 -2,280 Descending FlightAware
08:07PM -22.1830 -43.6760 149° Southeast 294 338 15,700 -2,040 Descending FlightAware
08:08PM -22.2340 -43.6430 149° Southeast 283 326 14,500 -1,740 Descending FlightAware
08:09PM -22.2640 -43.6230 148° Southeast 283 326 13,600 -1,980 Descending FlightAware
08:09PM -22.3350 -43.5760 149° Southeast 269 310 11,900 -1,680 Descending FlightAware
08:10PM -22.3770 -43.5480 148° Southeast 261 300 11,200 -1,320 Descending FlightAware
08:10PM -22.4000 -43.5420 166° South 265 305 10,600 -1,500 Descending FlightAware
08:11PM -22.4370 -43.5550 198° South 258 297 9,900 -1,140 Descending FlightAware
08:11PM -22.4700 -43.5660 197° South 233 268 9,500 -1,080 Descending FlightAware
08:12PM -22.5140 -43.5800 196° South 214 246 8,500 -1,200 Descending FlightAware
08:13PM -22.5470 -43.5920 199° South 216 249 7,800 -1,200 Descending FlightAware
08:13PM -22.5520 -43.5930 190° South 214 246 7,700 -1,140 Descending FlightAware
08:14PM -22.5960 -43.6080 197° South 205 236 6,900 -720 Descending FlightAware
08:14PM -22.6470 -43.6100 182° South 203 234 6,700 -420 Descending FlightAware
08:15PM -22.6540 -43.5970 120° Southeast 195 224 6,500 -840 Descending FlightAware
08:15PM -22.6670 -43.5720 119° Southeast 191 220 6,100 -900 Descending FlightAware
08:16PM -22.6790 -43.5520 123° Southeast 190 219 5,700 -780 Descending FlightAware
08:16PM -22.6860 -43.5410 125° Southeast 184 212 5,600 -900 Descending FlightAware
08:16PM -22.6970 -43.5210 121° Southeast 180 207 5,100 -1,020 Descending FlightAware
08:17PM -22.7100 -43.4970 120° Southeast 177 204 4,700 -840 Descending FlightAware
08:17PM -22.7190 -43.4740 113° Southeast 164 189 4,300 -540 Descending FlightAware
08:18PM -22.7210 -43.4460 94° East 163 188 4,100 -660 Descending FlightAware
08:18PM -22.7210 -43.4420 90° East 161 185 3,700 -1,500 Descending FlightAware
08:19PM -22.7220 -43.4200 93° East 161 185 3,200 -1,140 Descending FlightAware
08:19PM -22.7330 -43.3840 108° East 162 186 2,400 -1,080 Descending FlightAware
08:20PM -22.7540 -43.3520 125° Southeast 155 178 1,700 -1,020 Descending FlightAware
08:20PM -22.7660 -43.3340 126° Southeast 140 161 1,300 -840 Descending FlightAware
08:21PM -22.7770 -43.3180 127° Southeast 138 159 900 -780 Descending FlightAware
08:21PM -22.7860 -43.3030 123° Southeast 141 162 600 -780 Descending FlightAware
08:22PM -22.7920 -43.2940 126° Southeast 141 162 400 -960 Descending FlightAware
08:22PM -22.8030 -43.2780 127° Southeast 140 161 -840 Descending FlightAware
08:23PM -22.8200 -43.2520 125° Southeast 139 160  Level FlightAware
08:24PM -22.8200 -43.2500 90° East 139 160  Level FlightAware
08:25PM -22.8200 -43.2490 90° East 139 160  Level FlightAware
08:25PM -22.8200 -43.2500 270° West 139 160  Level FlightAware
08:27PM -22.8150 -43.2510 28° Northeast 139 160  Level FlightAware
08:28PM -22.8089 -43.2436 28° Northeast  Level Estimated
08:28PM -22.8020 -43.2450 23° Northeast 139 160  Level FlightAware
08:28PM -22.8140 -43.2490 197° South 139 160  Level FlightAware
08:29PM -22.8020 -43.2400 35° Northeast 139 160  Level FlightAware
08:30PM -22.8020 -43.2410 270° West 139 160  Level FlightAware
08:30PM -22.8140 -43.2480 208° Southwest 139 160  Level FlightAware
08:30PM -22.8020 -43.2410 28° Northeast 139 160  Level FlightAware
08:32PM -22.8010 -43.2400 43° Northeast 139 160  Level FlightAware
08:33PM -22.8140 -43.2480 210° Southwest 139 160  Level FlightAware
08:34PM -22.8020 -43.2410 28° Northeast 139 160  Level FlightAware
08:34PM -22.8000 -43.2390 43° Northeast 139 160  Level FlightAware
08:35PM -22.8140 -43.2480 211° Southwest 139 160  Level FlightAware
08:36PM -22.8020 -43.2410 28° Northeast 139 160  Level FlightAware
08:37PM -22.8140 -43.2480 208° Southwest 139 160  Level FlightAware
08:37PM -22.8010 -43.2400 30° Northeast 139 160  Level FlightAware
08:39PM -22.8140 -43.2480 210° Southwest 139 160  Level FlightAware
08:39PM -22.8020 -43.2400 32° Northeast 139 160  Level FlightAware
08:40PM -22.8140 -43.2480 212° Southwest 139 160  Level FlightAware
08:41PM -22.8020 -43.2410 28° Northeast 139 160  Level FlightAware
08:41PM -22.8140 -43.2480 208° Southwest 139 160  Level FlightAware
08:42PM -22.8020 -43.2410 28° Northeast 139 160  Level FlightAware
08:42PM -22.8140 -43.2480 208° Southwest 139 160  Level FlightAware
08:43PM -22.8020 -43.2410 28° Northeast 139 160  Level FlightAware
08:44PM -22.8140 -43.2480 208° Southwest 139 160  Level FlightAware
08:44PM -22.8010 -43.2400 30° Northeast 139 160  Level FlightAware
08:45PM -22.8020 -43.2410 223° Southwest 139 160  Level FlightAware
08:45PM -22.8140 -43.2480 208° Southwest 139 160  Level FlightAware
08:48PM -22.8089 -43.2436 38° Northeast  Level Estimated